sensor_id;sensor_type;location;lat;lon;timestamp;P1;P2;P0
57411;PMS5003;43247;52.828;-8.980;2023-02-28T00:00:28;20;19;
57411;PMS5003;43247;52.828;-8.980;2023-02-28T00:01:28;23;20;
57411;PMS5003;43247;52.828;-8.980;2023-02-28T00:02:29;22;21;
57411;PMS5003;43247;52.828;-8.980;2023-02-28T00:03:29;23;21;
57411;PMS5003;43247;52.828;-8.980;2023-02-28T00:04:29;19;18;
57411;PMS5003;43247;52.828;-8.980;2023-02-28T00:05:30;19;19;
57411;PMS5003;43247;52.828;-8.980;2023-02-28T00:06:30;19;18;
57411;PMS5003;43247;52.828;-8.980;2023-02-28T00:07:30;19;18;
57411;PMS5003;43247;52.828;-8.980;2023-02-28T00:08:30;21;21;
57411;PMS5003;43247;52.828;-8.980;2023-02-28T00:09:30;23;22;
57411;PMS5003;43247;52.828;-8.980;2023-02-28T00:10:31;22;20;
57411;PMS5003;43247;52.828;-8.980;2023-02-28T00:11:31;19;18;
57411;PMS5003;43247;52.828;-8.980;2023-02-28T00:12:31;20;19;
57411;PMS5003;43247;52.828;-8.980;2023-02-28T00:13:32;17;17;
57411;PMS5003;43247;52.828;-8.980;2023-02-28T00:14:31;20;19;
57411;PMS5003;43247;52.828;-8.980;2023-02-28T00:15:32;19;18;
57411;PMS5003;43247;52.828;-8.980;2023-02-28T00:16:32;23;22;
57411;PMS5003;43247;52.828;-8.980;2023-02-28T00:17:32;25;24;
57411;PMS5003;43247;52.828;-8.980;2023-02-28T00:18:33;24;21;
57411;PMS5003;43247;52.828;-8.980;2023-02-28T00:19:33;22;21;
57411;PMS5003;43247;52.828;-8.980;2023-02-28T00:20:34;20;18;
57411;PMS5003;43247;52.828;-8.980;2023-02-28T00:21:34;18;18;
57411;PMS5003;43247;52.828;-8.980;2023-02-28T00:22:34;19;19;
57411;PMS5003;43247;52.828;-8.980;2023-02-28T00:23:34;27;22;
57411;PMS5003;43247;52.828;-8.980;2023-02-28T00:24:34;26;20;
57411;PMS5003;43247;52.828;-8.980;2023-02-28T00:25:35;22;21;
57411;PMS5003;43247;52.828;-8.980;2023-02-28T00:26:35;20;19;
57411;PMS5003;43247;52.828;-8.980;2023-02-28T00:27:35;22;21;
57411;PMS5003;43247;52.828;-8.980;2023-02-28T00:28:35;21;20;
57411;PMS5003;43247;52.828;-8.980;2023-02-28T00:29:35;19;19;
57411;PMS5003;43247;52.828;-8.980;2023-02-28T00:30:35;21;20;
57411;PMS5003;43247;52.828;-8.980;2023-02-28T00:31:36;17;15;
57411;PMS5003;43247;52.828;-8.980;2023-02-28T00:32:36;21;18;
57411;PMS5003;43247;52.828;-8.980;2023-02-28T00:33:37;21;20;
57411;PMS5003;43247;52.828;-8.980;2023-02-28T00:34:37;19;19;
57411;PMS5003;43247;52.828;-8.980;2023-02-28T00:35:37;17;17;
57411;PMS5003;43247;52.828;-8.980;2023-02-28T00:36:37;18;18;
57411;PMS5003;43247;52.828;-8.980;2023-02-28T00:37:38;20;20;
57411;PMS5003;43247;52.828;-8.980;2023-02-28T00:38:38;18;15;
57411;PMS5003;43247;52.828;-8.980;2023-02-28T00:39:39;25;25;
57411;PMS5003;43247;52.828;-8.980;2023-02-28T00:40:39;18;16;
57411;PMS5003;43247;52.828;-8.980;2023-02-28T00:41:39;16;16;
57411;PMS5003;43247;52.828;-8.980;2023-02-28T00:42:39;17;17;
57411;PMS5003;43247;52.828;-8.980;2023-02-28T00:43:39;19;18;
57411;PMS5003;43247;52.828;-8.980;2023-02-28T00:44:40;18;18;
57411;PMS5003;43247;52.828;-8.980;2023-02-28T00:45:40;23;21;
57411;PMS5003;43247;52.828;-8.980;2023-02-28T00:46:41;18;18;
57411;PMS5003;43247;52.828;-8.980;2023-02-28T00:47:41;20;20;
57411;PMS5003;43247;52.828;-8.980;2023-02-28T00:48:41;19;19;
57411;PMS5003;43247;52.828;-8.980;2023-02-28T00:49:42;20;20;
57411;PMS5003;43247;52.828;-8.980;2023-02-28T00:50:42;18;17;
57411;PMS5003;43247;52.828;-8.980;2023-02-28T00:51:43;21;19;
57411;PMS5003;43247;52.828;-8.980;2023-02-28T00:52:44;20;18;
57411;PMS5003;43247;52.828;-8.980;2023-02-28T00:53:44;18;17;
57411;PMS5003;43247;52.828;-8.980;2023-02-28T00:54:44;16;15;
57411;PMS5003;43247;52.828;-8.980;2023-02-28T00:55:45;21;18;
57411;PMS5003;43247;52.828;-8.980;2023-02-28T00:56:46;20;19;
57411;PMS5003;43247;52.828;-8.980;2023-02-28T00:57:46;16;14;
57411;PMS5003;43247;52.828;-8.980;2023-02-28T00:58:46;20;17;
57411;PMS5003;43247;52.828;-8.980;2023-02-28T00:59:47;21;19;
57411;PMS5003;43247;52.828;-8.980;2023-02-28T01:00:47;16;15;
57411;PMS5003;43247;52.828;-8.980;2023-02-28T01:01:47;19;17;
57411;PMS5003;43247;52.828;-8.980;2023-02-28T01:02:48;17;17;
57411;PMS5003;43247;52.828;-8.980;2023-02-28T01:03:48;18;18;
57411;PMS5003;43247;52.828;-8.980;2023-02-28T01:04:48;18;18;
57411;PMS5003;43247;52.828;-8.980;2023-02-28T01:05:48;17;15;
57411;PMS5003;43247;52.828;-8.980;2023-02-28T01:06:49;18;18;
57411;PMS5003;43247;52.828;-8.980;2023-02-28T01:07:49;17;16;
57411;PMS5003;43247;52.828;-8.980;2023-02-28T01:08:50;19;18;
57411;PMS5003;43247;52.828;-8.980;2023-02-28T01:09:50;17;16;
57411;PMS5003;43247;52.828;-8.980;2023-02-28T01:10:51;23;23;
57411;PMS5003;43247;52.828;-8.980;2023-02-28T01:11:52;20;18;
57411;PMS5003;43247;52.828;-8.980;2023-02-28T01:12:52;20;18;
57411;PMS5003;43247;52.828;-8.980;2023-02-28T01:13:52;18;17;
57411;PMS5003;43247;52.828;-8.980;2023-02-28T01:14:52;16;16;
57411;PMS5003;43247;52.828;-8.980;2023-02-28T01:15:54;22;21;
57411;PMS5003;43247;52.828;-8.980;2023-02-28T01:16:53;17;15;
57411;PMS5003;43247;52.828;-8.980;2023-02-28T01:17:53;15;15;
57411;PMS5003;43247;52.828;-8.980;2023-02-28T01:18:54;17;16;
57411;PMS5003;43247;52.828;-8.980;2023-02-28T01:19:54;16;16;
57411;PMS5003;43247;52.828;-8.980;2023-02-28T01:20:54;17;17;
57411;PMS5003;43247;52.828;-8.980;2023-02-28T01:21:54;18;15;
57411;PMS5003;43247;52.828;-8.980;2023-02-28T01:22:55;18;17;
57411;PMS5003;43247;52.828;-8.980;2023-02-28T01:23:56;17;16;
57411;PMS5003;43247;52.828;-8.980;2023-02-28T01:24:55;15;14;
57411;PMS5003;43247;52.828;-8.980;2023-02-28T01:25:56;21;17;
57411;PMS5003;43247;52.828;-8.980;2023-02-28T01:26:56;16;16;
57411;PMS5003;43247;52.828;-8.980;2023-02-28T01:27:56;18;18;
57411;PMS5003;43247;52.828;-8.980;2023-02-28T01:28:57;17;17;
57411;PMS5003;43247;52.828;-8.980;2023-02-28T01:29:57;17;14;
57411;PMS5003;43247;52.828;-8.980;2023-02-28T01:30:58;16;15;
57411;PMS5003;43247;52.828;-8.980;2023-02-28T01:31:58;16;15;
57411;PMS5003;43247;52.828;-8.980;2023-02-28T01:32:59;16;13;
57411;PMS5003;43247;52.828;-8.980;2023-02-28T01:33:59;15;13;
57411;PMS5003;43247;52.828;-8.980;2023-02-28T01:34:59;17;15;
57411;PMS5003;43247;52.828;-8.980;2023-02-28T01:36:00;16;15;
57411;PMS5003;43247;52.828;-8.980;2023-02-28T01:37:01;15;14;
57411;PMS5003;43247;52.828;-8.980;2023-02-28T01:38:01;12;12;
57411;PMS5003;43247;52.828;-8.980;2023-02-28T01:39:01;15;14;
57411;PMS5003;43247;52.828;-8.980;2023-02-28T01:40:03;12;12;
57411;PMS5003;43247;52.828;-8.980;2023-02-28T01:41:04;12;11;
57411;PMS5003;43247;52.828;-8.980;2023-02-28T01:42:04;16;16;
57411;PMS5003;43247;52.828;-8.980;2023-02-28T01:43:05;11;11;
57411;PMS5003;43247;52.828;-8.980;2023-02-28T01:44:05;14;12;
57411;PMS5003;43247;52.828;-8.980;2023-02-28T01:45:14;13;13;
57411;PMS5003;43247;52.828;-8.980;2023-02-28T01:46:06;12;12;
57411;PMS5003;43247;52.828;-8.980;2023-02-28T01:47:06;16;14;
57411;PMS5003;43247;52.828;-8.980;2023-02-28T01:48:07;14;14;
57411;PMS5003;43247;52.828;-8.980;2023-02-28T01:49:07;13;13;
57411;PMS5003;43247;52.828;-8.980;2023-02-28T01:50:08;15;15;
57411;PMS5003;43247;52.828;-8.980;2023-02-28T01:51:08;13;12;
57411;PMS5003;43247;52.828;-8.980;2023-02-28T01:52:07;17;14;
57411;PMS5003;43247;52.828;-8.980;2023-02-28T01:53:09;12;12;
57411;PMS5003;43247;52.828;-8.980;2023-02-28T01:54:08;13;13;
57411;PMS5003;43247;52.828;-8.980;2023-02-28T01:55:08;11;11;
57411;PMS5003;43247;52.828;-8.980;2023-02-28T01:56:08;15;15;
57411;PMS5003;43247;52.828;-8.980;2023-02-28T01:57:09;12;12;
57411;PMS5003;43247;52.828;-8.980;2023-02-28T01:58:09;8;8;
57411;PMS5003;43247;52.828;-8.980;2023-02-28T01:59:09;12;11;
57411;PMS5003;43247;52.828;-8.980;2023-02-28T02:00:10;13;12;
57411;PMS5003;43247;52.828;-8.980;2023-02-28T02:01:09;12;12;
57411;PMS5003;43247;52.828;-8.980;2023-02-28T02:02:10;10;10;
57411;PMS5003;43247;52.828;-8.980;2023-02-28T02:03:10;11;10;
57411;PMS5003;43247;52.828;-8.980;2023-02-28T02:04:10;13;13;
57411;PMS5003;43247;52.828;-8.980;2023-02-28T02:05:11;10;10;
57411;PMS5003;43247;52.828;-8.980;2023-02-28T02:06:10;15;13;
57411;PMS5003;43247;52.828;-8.980;2023-02-28T02:07:11;12;12;
57411;PMS5003;43247;52.828;-8.980;2023-02-28T02:08:12;13;11;
57411;PMS5003;43247;52.828;-8.980;2023-02-28T02:09:12;16;16;
57411;PMS5003;43247;52.828;-8.980;2023-02-28T02:10:13;12;12;
57411;PMS5003;43247;52.828;-8.980;2023-02-28T02:11:12;12;10;
57411;PMS5003;43247;52.828;-8.980;2023-02-28T02:12:15;10;10;
57411;PMS5003;43247;52.828;-8.980;2023-02-28T02:13:18;13;13;
57411;PMS5003;43247;52.828;-8.980;2023-02-28T02:15:14;13;13;
57411;PMS5003;43247;52.828;-8.980;2023-02-28T02:16:17;12;12;
57411;PMS5003;43247;52.828;-8.980;2023-02-28T02:17:16;13;11;
57411;PMS5003;43247;52.828;-8.980;2023-02-28T02:18:17;11;11;
57411;PMS5003;43247;52.828;-8.980;2023-02-28T02:19:18;11;9;
57411;PMS5003;43247;52.828;-8.980;2023-02-28T02:21:19;10;10;
57411;PMS5003;43247;52.828;-8.980;2023-02-28T02:22:21;9;9;
57411;PMS5003;43247;52.828;-8.980;2023-02-28T02:24:22;10;10;
57411;PMS5003;43247;52.828;-8.980;2023-02-28T02:25:19;10;10;
57411;PMS5003;43247;52.828;-8.980;2023-02-28T02:26:21;9;9;
57411;PMS5003;43247;52.828;-8.980;2023-02-28T02:27:18;9;9;
57411;PMS5003;43247;52.828;-8.980;2023-02-28T02:28:22;12;10;
57411;PMS5003;43247;52.828;-8.980;2023-02-28T02:29:22;9;9;
57411;PMS5003;43247;52.828;-8.980;2023-02-28T02:30:21;10;10;
57411;PMS5003;43247;52.828;-8.980;2023-02-28T02:31:21;9;9;
57411;PMS5003;43247;52.828;-8.980;2023-02-28T02:32:21;10;10;
57411;PMS5003;43247;52.828;-8.980;2023-02-28T02:35:18;7;7;
57411;PMS5003;43247;52.828;-8.980;2023-02-28T02:36:19;9;9;
57411;PMS5003;43247;52.828;-8.980;2023-02-28T02:37:23;10;9;
57411;PMS5003;43247;52.828;-8.980;2023-02-28T02:38:20;9;9;
57411;PMS5003;43247;52.828;-8.980;2023-02-28T02:39:20;9;9;
57411;PMS5003;43247;52.828;-8.980;2023-02-28T02:40:20;12;11;
57411;PMS5003;43247;52.828;-8.980;2023-02-28T02:41:23;8;8;
57411;PMS5003;43247;52.828;-8.980;2023-02-28T02:42:21;10;9;
57411;PMS5003;43247;52.828;-8.980;2023-02-28T02:43:22;10;10;
57411;PMS5003;43247;52.828;-8.980;2023-02-28T02:44:21;10;9;
57411;PMS5003;43247;52.828;-8.980;2023-02-28T02:45:22;10;10;
57411;PMS5003;43247;52.828;-8.980;2023-02-28T02:46:25;12;11;
57411;PMS5003;43247;52.828;-8.980;2023-02-28T02:47:22;11;10;
57411;PMS5003;43247;52.828;-8.980;2023-02-28T02:48:24;9;9;
57411;PMS5003;43247;52.828;-8.980;2023-02-28T02:49:24;7;7;
57411;PMS5003;43247;52.828;-8.980;2023-02-28T02:50:24;10;10;
57411;PMS5003;43247;52.828;-8.980;2023-02-28T02:51:23;8;8;
57411;PMS5003;43247;52.828;-8.980;2023-02-28T02:52:28;14;12;
57411;PMS5003;43247;52.828;-8.980;2023-02-28T02:53:24;9;9;
57411;PMS5003;43247;52.828;-8.980;2023-02-28T02:54:24;10;9;
57411;PMS5003;43247;52.828;-8.980;2023-02-28T02:55:24;12;9;
57411;PMS5003;43247;52.828;-8.980;2023-02-28T02:56:24;9;8;
57411;PMS5003;43247;52.828;-8.980;2023-02-28T02:57:25;7;7;
57411;PMS5003;43247;52.828;-8.980;2023-02-28T02:58:25;8;8;
57411;PMS5003;43247;52.828;-8.980;2023-02-28T02:59:24;9;9;
57411;PMS5003;43247;52.828;-8.980;2023-02-28T03:00:26;9;8;
57411;PMS5003;43247;52.828;-8.980;2023-02-28T03:01:25;10;10;
57411;PMS5003;43247;52.828;-8.980;2023-02-28T03:02:25;8;7;
57411;PMS5003;43247;52.828;-8.980;2023-02-28T03:03:25;6;6;
57411;PMS5003;43247;52.828;-8.980;2023-02-28T03:04:27;7;7;
57411;PMS5003;43247;52.828;-8.980;2023-02-28T03:05:26;6;6;
57411;PMS5003;43247;52.828;-8.980;2023-02-28T03:06:26;7;7;
57411;PMS5003;43247;52.828;-8.980;2023-02-28T03:07:26;8;8;
57411;PMS5003;43247;52.828;-8.980;2023-02-28T03:08:27;8;7;
57411;PMS5003;43247;52.828;-8.980;2023-02-28T03:09:27;7;7;
57411;PMS5003;43247;52.828;-8.980;2023-02-28T03:10:28;7;7;
57411;PMS5003;43247;52.828;-8.980;2023-02-28T03:11:27;6;6;
57411;PMS5003;43247;52.828;-8.980;2023-02-28T03:12:29;8;8;
57411;PMS5003;43247;52.828;-8.980;2023-02-28T03:14:32;8;7;
57411;PMS5003;43247;52.828;-8.980;2023-02-28T03:15:30;7;7;
57411;PMS5003;43247;52.828;-8.980;2023-02-28T03:16:32;9;9;
57411;PMS5003;43247;52.828;-8.980;2023-02-28T03:17:31;11;9;
57411;PMS5003;43247;52.828;-8.980;2023-02-28T03:18:30;5;5;
57411;PMS5003;43247;52.828;-8.980;2023-02-28T03:19:32;8;8;
57411;PMS5003;43247;52.828;-8.980;2023-02-28T03:20:33;6;6;
57411;PMS5003;43247;52.828;-8.980;2023-02-28T03:21:31;7;7;
57411;PMS5003;43247;52.828;-8.980;2023-02-28T03:22:34;7;7;
57411;PMS5003;43247;52.828;-8.980;2023-02-28T03:23:32;8;8;
57411;PMS5003;43247;52.828;-8.980;2023-02-28T03:24:31;8;8;
57411;PMS5003;43247;52.828;-8.980;2023-02-28T03:25:32;9;9;
57411;PMS5003;43247;52.828;-8.980;2023-02-28T03:26:31;7;7;
57411;PMS5003;43247;52.828;-8.980;2023-02-28T03:27:34;12;11;
57411;PMS5003;43247;52.828;-8.980;2023-02-28T03:28:32;7;7;
57411;PMS5003;43247;52.828;-8.980;2023-02-28T03:29:32;8;8;
57411;PMS5003;43247;52.828;-8.980;2023-02-28T03:30:34;8;8;
57411;PMS5003;43247;52.828;-8.980;2023-02-28T03:31:33;8;7;
57411;PMS5003;43247;52.828;-8.980;2023-02-28T03:32:33;9;7;
57411;PMS5003;43247;52.828;-8.980;2023-02-28T03:33:34;11;9;
57411;PMS5003;43247;52.828;-8.980;2023-02-28T03:34:33;8;8;
57411;PMS5003;43247;52.828;-8.980;2023-02-28T03:35:34;7;7;
57411;PMS5003;43247;52.828;-8.980;2023-02-28T03:36:33;10;9;
57411;PMS5003;43247;52.828;-8.980;2023-02-28T03:37:34;9;8;
57411;PMS5003;43247;52.828;-8.980;2023-02-28T03:38:35;9;8;
57411;PMS5003;43247;52.828;-8.980;2023-02-28T03:39:35;8;8;
57411;PMS5003;43247;52.828;-8.980;2023-02-28T03:40:34;11;11;
57411;PMS5003;43247;52.828;-8.980;2023-02-28T03:41:35;9;9;
57411;PMS5003;43247;52.828;-8.980;2023-02-28T03:42:36;10;9;
57411;PMS5003;43247;52.828;-8.980;2023-02-28T03:43:35;7;7;
57411;PMS5003;43247;52.828;-8.980;2023-02-28T03:44:37;9;9;
57411;PMS5003;43247;52.828;-8.980;2023-02-28T03:45:36;9;8;
57411;PMS5003;43247;52.828;-8.980;2023-02-28T03:46:38;11;10;
57411;PMS5003;43247;52.828;-8.980;2023-02-28T03:47:37;11;11;
57411;PMS5003;43247;52.828;-8.980;2023-02-28T03:48:38;11;10;
57411;PMS5003;43247;52.828;-8.980;2023-02-28T03:49:39;12;12;
57411;PMS5003;43247;52.828;-8.980;2023-02-28T03:50:38;9;9;
57411;PMS5003;43247;52.828;-8.980;2023-02-28T03:51:37;11;11;
57411;PMS5003;43247;52.828;-8.980;2023-02-28T03:52:38;12;12;
57411;PMS5003;43247;52.828;-8.980;2023-02-28T03:53:39;12;10;
57411;PMS5003;43247;52.828;-8.980;2023-02-28T03:54:40;13;11;
57411;PMS5003;43247;52.828;-8.980;2023-02-28T03:55:39;11;11;
57411;PMS5003;43247;52.828;-8.980;2023-02-28T03:56:40;17;15;
57411;PMS5003;43247;52.828;-8.980;2023-02-28T03:57:40;15;13;
57411;PMS5003;43247;52.828;-8.980;2023-02-28T03:58:41;12;12;
57411;PMS5003;43247;52.828;-8.980;2023-02-28T03:59:41;15;13;
57411;PMS5003;43247;52.828;-8.980;2023-02-28T04:00:40;17;15;
57411;PMS5003;43247;52.828;-8.980;2023-02-28T04:01:40;12;12;
57411;PMS5003;43247;52.828;-8.980;2023-02-28T04:02:40;14;12;
57411;PMS5003;43247;52.828;-8.980;2023-02-28T04:03:40;13;13;
57411;PMS5003;43247;52.828;-8.980;2023-02-28T04:04:41;13;11;
57411;PMS5003;43247;52.828;-8.980;2023-02-28T04:05:46;14;14;
57411;PMS5003;43247;52.828;-8.980;2023-02-28T04:06:42;12;12;
57411;PMS5003;43247;52.828;-8.980;2023-02-28T04:07:42;12;11;
57411;PMS5003;43247;52.828;-8.980;2023-02-28T04:08:42;13;12;
57411;PMS5003;43247;52.828;-8.980;2023-02-28T04:09:42;12;12;
57411;PMS5003;43247;52.828;-8.980;2023-02-28T04:10:42;11;10;
57411;PMS5003;43247;52.828;-8.980;2023-02-28T04:11:44;11;10;
57411;PMS5003;43247;52.828;-8.980;2023-02-28T04:12:43;10;10;
57411;PMS5003;43247;52.828;-8.980;2023-02-28T04:13:43;11;9;
57411;PMS5003;43247;52.828;-8.980;2023-02-28T04:14:43;14;9;
57411;PMS5003;43247;52.828;-8.980;2023-02-28T04:15:43;13;11;
57411;PMS5003;43247;52.828;-8.980;2023-02-28T04:16:44;11;10;
57411;PMS5003;43247;52.828;-8.980;2023-02-28T04:17:44;11;9;
57411;PMS5003;43247;52.828;-8.980;2023-02-28T04:18:44;12;12;
57411;PMS5003;43247;52.828;-8.980;2023-02-28T04:19:44;10;8;
57411;PMS5003;43247;52.828;-8.980;2023-02-28T04:20:44;13;13;
57411;PMS5003;43247;52.828;-8.980;2023-02-28T04:21:45;12;12;
57411;PMS5003;43247;52.828;-8.980;2023-02-28T04:22:45;13;12;
57411;PMS5003;43247;52.828;-8.980;2023-02-28T04:23:45;11;11;
57411;PMS5003;43247;52.828;-8.980;2023-02-28T04:24:45;13;11;
57411;PMS5003;43247;52.828;-8.980;2023-02-28T04:25:45;14;13;
57411;PMS5003;43247;52.828;-8.980;2023-02-28T04:26:46;15;13;
57411;PMS5003;43247;52.828;-8.980;2023-02-28T04:27:46;11;11;
57411;PMS5003;43247;52.828;-8.980;2023-02-28T04:28:46;13;13;
57411;PMS5003;43247;52.828;-8.980;2023-02-28T04:29:46;15;15;
57411;PMS5003;43247;52.828;-8.980;2023-02-28T04:30:46;14;12;
57411;PMS5003;43247;52.828;-8.980;2023-02-28T04:31:47;15;13;
57411;PMS5003;43247;52.828;-8.980;2023-02-28T04:32:47;16;16;
57411;PMS5003;43247;52.828;-8.980;2023-02-28T04:33:48;14;14;
57411;PMS5003;43247;52.828;-8.980;2023-02-28T04:34:48;16;16;
57411;PMS5003;43247;52.828;-8.980;2023-02-28T04:35:48;17;15;
57411;PMS5003;43247;52.828;-8.980;2023-02-28T04:36:48;16;14;
57411;PMS5003;43247;52.828;-8.980;2023-02-28T04:37:48;17;17;
57411;PMS5003;43247;52.828;-8.980;2023-02-28T04:38:49;21;19;
57411;PMS5003;43247;52.828;-8.980;2023-02-28T04:39:49;16;16;
57411;PMS5003;43247;52.828;-8.980;2023-02-28T04:40:49;19;18;
57411;PMS5003;43247;52.828;-8.980;2023-02-28T04:41:50;17;16;
57411;PMS5003;43247;52.828;-8.980;2023-02-28T04:42:50;20;20;
57411;PMS5003;43247;52.828;-8.980;2023-02-28T04:43:50;23;21;
57411;PMS5003;43247;52.828;-8.980;2023-02-28T04:44:50;17;17;
57411;PMS5003;43247;52.828;-8.980;2023-02-28T04:45:50;20;19;
57411;PMS5003;43247;52.828;-8.980;2023-02-28T04:46:51;20;19;
57411;PMS5003;43247;52.828;-8.980;2023-02-28T04:47:51;20;20;
57411;PMS5003;43247;52.828;-8.980;2023-02-28T04:48:51;23;21;
57411;PMS5003;43247;52.828;-8.980;2023-02-28T04:49:52;19;17;
57411;PMS5003;43247;52.828;-8.980;2023-02-28T04:50:52;17;17;
57411;PMS5003;43247;52.828;-8.980;2023-02-28T04:51:53;21;21;
57411;PMS5003;43247;52.828;-8.980;2023-02-28T04:52:53;20;19;
57411;PMS5003;43247;52.828;-8.980;2023-02-28T04:53:53;18;16;
57411;PMS5003;43247;52.828;-8.980;2023-02-28T04:54:53;17;17;
57411;PMS5003;43247;52.828;-8.980;2023-02-28T04:55:54;19;19;
57411;PMS5003;43247;52.828;-8.980;2023-02-28T04:56:54;15;13;
57411;PMS5003;43247;52.828;-8.980;2023-02-28T04:57:54;19;17;
57411;PMS5003;43247;52.828;-8.980;2023-02-28T04:58:54;17;16;
57411;PMS5003;43247;52.828;-8.980;2023-02-28T04:59:54;15;15;
57411;PMS5003;43247;52.828;-8.980;2023-02-28T05:00:57;19;17;
57411;PMS5003;43247;52.828;-8.980;2023-02-28T05:01:55;18;17;
57411;PMS5003;43247;52.828;-8.980;2023-02-28T05:02:55;16;15;
57411;PMS5003;43247;52.828;-8.980;2023-02-28T05:03:56;16;15;
57411;PMS5003;43247;52.828;-8.980;2023-02-28T05:04:56;15;13;
57411;PMS5003;43247;52.828;-8.980;2023-02-28T05:05:56;17;16;
57411;PMS5003;43247;52.828;-8.980;2023-02-28T05:06:56;18;16;
57411;PMS5003;43247;52.828;-8.980;2023-02-28T05:07:56;15;15;
57411;PMS5003;43247;52.828;-8.980;2023-02-28T05:08:57;16;16;
57411;PMS5003;43247;52.828;-8.980;2023-02-28T05:09:57;18;16;
57411;PMS5003;43247;52.828;-8.980;2023-02-28T05:10:57;15;14;
57411;PMS5003;43247;52.828;-8.980;2023-02-28T05:11:58;15;15;
57411;PMS5003;43247;52.828;-8.980;2023-02-28T05:12:58;12;11;
57411;PMS5003;43247;52.828;-8.980;2023-02-28T05:13:59;15;15;
57411;PMS5003;43247;52.828;-8.980;2023-02-28T05:14:59;15;15;
57411;PMS5003;43247;52.828;-8.980;2023-02-28T05:15:59;17;17;
57411;PMS5003;43247;52.828;-8.980;2023-02-28T05:17:00;14;13;
57411;PMS5003;43247;52.828;-8.980;2023-02-28T05:18:00;12;12;
57411;PMS5003;43247;52.828;-8.980;2023-02-28T05:19:00;15;14;
57411;PMS5003;43247;52.828;-8.980;2023-02-28T05:20:00;15;14;
57411;PMS5003;43247;52.828;-8.980;2023-02-28T05:21:01;13;12;
57411;PMS5003;43247;52.828;-8.980;2023-02-28T05:22:01;17;17;
57411;PMS5003;43247;52.828;-8.980;2023-02-28T05:23:02;16;16;
57411;PMS5003;43247;52.828;-8.980;2023-02-28T05:24:03;13;13;
57411;PMS5003;43247;52.828;-8.980;2023-02-28T05:25:03;12;11;
57411;PMS5003;43247;52.828;-8.980;2023-02-28T05:26:03;14;12;
57411;PMS5003;43247;52.828;-8.980;2023-02-28T05:27:03;14;14;
57411;PMS5003;43247;52.828;-8.980;2023-02-28T05:28:03;12;11;
57411;PMS5003;43247;52.828;-8.980;2023-02-28T05:29:03;16;14;
57411;PMS5003;43247;52.828;-8.980;2023-02-28T05:30:04;11;11;
57411;PMS5003;43247;52.828;-8.980;2023-02-28T05:31:04;12;12;
57411;PMS5003;43247;52.828;-8.980;2023-02-28T05:32:04;11;11;
57411;PMS5003;43247;52.828;-8.980;2023-02-28T05:33:05;13;13;
57411;PMS5003;43247;52.828;-8.980;2023-02-28T05:34:05;12;12;
57411;PMS5003;43247;52.828;-8.980;2023-02-28T05:35:05;15;14;
57411;PMS5003;43247;52.828;-8.980;2023-02-28T05:36:06;12;12;
57411;PMS5003;43247;52.828;-8.980;2023-02-28T05:37:06;13;13;
57411;PMS5003;43247;52.828;-8.980;2023-02-28T05:38:06;15;14;
57411;PMS5003;43247;52.828;-8.980;2023-02-28T05:39:06;13;12;
57411;PMS5003;43247;52.828;-8.980;2023-02-28T05:40:07;14;13;
57411;PMS5003;43247;52.828;-8.980;2023-02-28T05:41:07;12;12;
57411;PMS5003;43247;52.828;-8.980;2023-02-28T05:42:07;14;13;
57411;PMS5003;43247;52.828;-8.980;2023-02-28T05:43:09;16;12;
57411;PMS5003;43247;52.828;-8.980;2023-02-28T05:44:07;14;13;
57411;PMS5003;43247;52.828;-8.980;2023-02-28T05:45:08;14;13;
57411;PMS5003;43247;52.828;-8.980;2023-02-28T05:46:08;13;11;
57411;PMS5003;43247;52.828;-8.980;2023-02-28T05:47:08;13;12;
57411;PMS5003;43247;52.828;-8.980;2023-02-28T05:48:08;9;9;
57411;PMS5003;43247;52.828;-8.980;2023-02-28T05:49:08;13;12;
57411;PMS5003;43247;52.828;-8.980;2023-02-28T05:50:09;13;13;
57411;PMS5003;43247;52.828;-8.980;2023-02-28T05:51:09;12;12;
57411;PMS5003;43247;52.828;-8.980;2023-02-28T05:52:09;15;15;
57411;PMS5003;43247;52.828;-8.980;2023-02-28T05:53:09;15;14;
57411;PMS5003;43247;52.828;-8.980;2023-02-28T05:54:09;14;14;
57411;PMS5003;43247;52.828;-8.980;2023-02-28T05:55:09;11;11;
57411;PMS5003;43247;52.828;-8.980;2023-02-28T05:56:10;14;14;
57411;PMS5003;43247;52.828;-8.980;2023-02-28T05:57:10;12;12;
57411;PMS5003;43247;52.828;-8.980;2023-02-28T05:58:11;11;11;
57411;PMS5003;43247;52.828;-8.980;2023-02-28T05:59:11;14;13;
57411;PMS5003;43247;52.828;-8.980;2023-02-28T06:00:12;12;11;
57411;PMS5003;43247;52.828;-8.980;2023-02-28T06:02:13;14;13;
57411;PMS5003;43247;52.828;-8.980;2023-02-28T06:03:12;12;11;
57411;PMS5003;43247;52.828;-8.980;2023-02-28T06:04:13;11;11;
57411;PMS5003;43247;52.828;-8.980;2023-02-28T06:05:13;12;11;
57411;PMS5003;43247;52.828;-8.980;2023-02-28T06:06:13;13;12;
57411;PMS5003;43247;52.828;-8.980;2023-02-28T06:07:13;14;13;
57411;PMS5003;43247;52.828;-8.980;2023-02-28T06:08:13;13;13;
57411;PMS5003;43247;52.828;-8.980;2023-02-28T06:09:14;16;14;
57411;PMS5003;43247;52.828;-8.980;2023-02-28T06:10:14;15;15;
57411;PMS5003;43247;52.828;-8.980;2023-02-28T06:11:14;16;13;
57411;PMS5003;43247;52.828;-8.980;2023-02-28T06:12:14;12;12;
57411;PMS5003;43247;52.828;-8.980;2023-02-28T06:13:14;14;14;
57411;PMS5003;43247;52.828;-8.980;2023-02-28T06:14:15;14;13;
57411;PMS5003;43247;52.828;-8.980;2023-02-28T06:15:15;13;12;
57411;PMS5003;43247;52.828;-8.980;2023-02-28T06:16:15;15;14;
57411;PMS5003;43247;52.828;-8.980;2023-02-28T06:17:16;14;13;
57411;PMS5003;43247;52.828;-8.980;2023-02-28T06:18:16;16;13;
57411;PMS5003;43247;52.828;-8.980;2023-02-28T06:19:16;13;13;
57411;PMS5003;43247;52.828;-8.980;2023-02-28T06:20:17;13;13;
57411;PMS5003;43247;52.828;-8.980;2023-02-28T06:21:17;12;11;
57411;PMS5003;43247;52.828;-8.980;2023-02-28T06:22:17;15;13;
57411;PMS5003;43247;52.828;-8.980;2023-02-28T06:23:17;15;13;
57411;PMS5003;43247;52.828;-8.980;2023-02-28T06:24:17;15;14;
57411;PMS5003;43247;52.828;-8.980;2023-02-28T06:25:18;11;11;
57411;PMS5003;43247;52.828;-8.980;2023-02-28T06:26:18;12;12;
57411;PMS5003;43247;52.828;-8.980;2023-02-28T06:27:18;11;11;
57411;PMS5003;43247;52.828;-8.980;2023-02-28T06:28:18;10;10;
57411;PMS5003;43247;52.828;-8.980;2023-02-28T06:29:18;13;13;
57411;PMS5003;43247;52.828;-8.980;2023-02-28T06:30:19;12;12;
57411;PMS5003;43247;52.828;-8.980;2023-02-28T06:31:19;10;10;
57411;PMS5003;43247;52.828;-8.980;2023-02-28T06:32:20;14;13;
57411;PMS5003;43247;52.828;-8.980;2023-02-28T06:33:20;10;10;
57411;PMS5003;43247;52.828;-8.980;2023-02-28T06:34:20;15;13;
57411;PMS5003;43247;52.828;-8.980;2023-02-28T06:35:20;11;11;
57411;PMS5003;43247;52.828;-8.980;2023-02-28T06:36:20;12;12;
57411;PMS5003;43247;52.828;-8.980;2023-02-28T06:37:21;14;14;
57411;PMS5003;43247;52.828;-8.980;2023-02-28T06:38:21;12;12;
57411;PMS5003;43247;52.828;-8.980;2023-02-28T06:39:22;11;9;
57411;PMS5003;43247;52.828;-8.980;2023-02-28T06:40:22;11;11;
57411;PMS5003;43247;52.828;-8.980;2023-02-28T06:41:22;13;13;
57411;PMS5003;43247;52.828;-8.980;2023-02-28T06:42:22;12;12;